createdAt,value
2022-08-22T00:03:33.191Z,15.30
2022-08-22T00:07:45.969Z,15.20
2022-08-22T00:12:01.742Z,15.10
2022-08-22T00:16:27.620Z,15.00
2022-08-22T00:20:35.859Z,15.00
2022-08-22T00:24:41.657Z,14.90
2022-08-22T00:28:59.984Z,14.90
2022-08-22T00:33:29.777Z,14.80
2022-08-22T00:37:44.729Z,14.80
2022-08-22T00:42:29.561Z,14.80
2022-08-22T00:46:40.199Z,14.70
2022-08-22T00:50:51.018Z,14.60
2022-08-22T00:55:11.449Z,14.50
2022-08-22T00:59:23.294Z,14.50
2022-08-22T01:03:52.782Z,14.40
2022-08-22T01:08:31.692Z,14.40
2022-08-22T01:12:42.340Z,14.30
2022-08-22T01:17:00.580Z,14.30
2022-08-22T01:21:33.381Z,14.30
2022-08-22T01:26:09.864Z,14.20
2022-08-22T01:30:49.655Z,14.20
2022-08-22T01:35:02.110Z,14.10
2022-08-22T01:39:15.332Z,14.00
2022-08-22T01:43:59.273Z,14.00
2022-08-22T01:48:05.606Z,13.90
2022-08-22T01:52:36.273Z,13.90
2022-08-22T01:56:44.867Z,13.80
2022-08-22T02:01:20.152Z,13.80
2022-08-22T02:05:28.586Z,13.70
2022-08-22T02:09:48.367Z,13.70
2022-08-22T02:14:18.438Z,13.60
2022-08-22T02:19:04.978Z,13.50
2022-08-22T02:23:14.714Z,13.50
2022-08-22T02:27:50.937Z,13.50
2022-08-22T02:31:57.783Z,13.40
2022-08-22T02:36:21.954Z,13.30
2022-08-22T02:40:30.418Z,13.30
2022-08-22T02:44:36.328Z,13.20
2022-08-22T02:48:50.426Z,13.20
2022-08-22T02:53:06.299Z,13.20
2022-08-22T02:57:30.022Z,13.10
2022-08-22T03:01:45.889Z,13.10
2022-08-22T03:06:01.990Z,13.10
2022-08-22T03:10:15.509Z,13.10
2022-08-22T03:14:35.593Z,13.00
2022-08-22T03:19:08.485Z,13.00
2022-08-22T03:23:40.859Z,13.00
2022-08-22T03:27:50.514Z,13.00
2022-08-22T03:32:24.116Z,13.00
2022-08-22T03:36:31.363Z,12.90
2022-08-22T03:40:52.111Z,12.80
2022-08-22T03:45:15.245Z,12.90
2022-08-22T03:49:52.191Z,12.80
2022-08-22T03:54:30.516Z,12.90
2022-08-22T03:58:52.074Z,12.90
2022-08-22T04:03:06.116Z,12.90
2022-08-22T04:07:33.407Z,12.90
2022-08-22T04:11:56.505Z,12.90
2022-08-22T04:16:12.451Z,13.00
2022-08-22T04:20:49.296Z,13.00
2022-08-22T04:24:58.843Z,13.00
2022-08-22T04:29:16.696Z,13.00
2022-08-22T04:33:28.320Z,13.00
2022-08-22T04:37:56.361Z,13.10
2022-08-22T04:42:36.657Z,13.20
2022-08-22T04:47:02.490Z,13.20
2022-08-22T04:51:22.101Z,13.30
2022-08-22T04:55:44.799Z,13.30
2022-08-22T04:59:47.223Z,13.40
2022-08-22T05:04:05.845Z,13.40
2022-08-22T05:08:13.229Z,13.40
2022-08-22T05:12:18.701Z,13.50
2022-08-22T05:16:27.241Z,13.50
2022-08-22T05:20:30.154Z,13.50
2022-08-22T05:24:43.146Z,13.60
2022-08-22T05:28:53.390Z,13.60
2022-08-22T05:33:08.064Z,13.80
2022-08-22T05:37:20.979Z,13.90
2022-08-22T05:41:26.484Z,14.00
2022-08-22T05:45:29.063Z,14.10
2022-08-22T05:49:48.655Z,14.30
2022-08-22T05:54:01.552Z,14.40
2022-08-22T05:58:23.447Z,14.50
2022-08-22T06:03:14.480Z,14.70
2022-08-22T06:07:48.647Z,14.70
2022-08-22T06:12:00.496Z,14.80
2022-08-22T06:16:08.158Z,14.80
2022-08-22T06:20:20.648Z,14.90
2022-08-22T06:24:27.425Z,15.10
2022-08-22T06:28:34.914Z,15.30
2022-08-22T06:32:59.587Z,15.60
2022-08-22T06:37:07.348Z,15.80
2022-08-22T06:41:10.593Z,16.20
2022-08-22T06:45:22.304Z,16.50
2022-08-22T06:49:26.087Z,16.80
2022-08-22T06:53:47.917Z,17.10
2022-08-22T06:58:17.708Z,17.40
2022-08-22T07:02:37.957Z,17.60
2022-08-22T07:06:50.005Z,18.00
2022-08-22T07:11:08.740Z,18.40
2022-08-22T07:15:33.944Z,18.60
2022-08-22T07:19:45.167Z,19.10
2022-08-22T07:23:48.127Z,19.40
2022-08-22T07:28:06.970Z,19.80
2022-08-22T07:32:41.939Z,20.20
2022-08-22T07:37:14.368Z,20.60
2022-08-22T07:41:20.895Z,20.90
2022-08-22T07:45:31.940Z,21.40
2022-08-22T07:49:49.642Z,21.60
2022-08-22T07:54:01.044Z,21.80
2022-08-22T07:58:05.827Z,22.10
2022-08-22T08:02:12.232Z,22.20
2022-08-22T08:06:14.195Z,22.40
2022-08-22T08:10:23.196Z,22.60
2022-08-22T08:14:26.325Z,22.80
2022-08-22T08:18:32.019Z,22.90
2022-08-22T08:22:34.345Z,23.10
2022-08-22T08:27:01.106Z,22.90
2022-08-22T08:31:21.839Z,22.90
2022-08-22T08:35:42.222Z,23.10
2022-08-22T08:39:58.964Z,22.90
2022-08-22T08:44:39.374Z,23.20
2022-08-22T08:48:50.144Z,23.20
2022-08-22T08:53:13.508Z,23.70
2022-08-22T08:57:20.560Z,24.10
2022-08-22T09:01:35.810Z,24.60
2022-08-22T09:05:52.787Z,24.70
2022-08-22T09:10:00.610Z,24.40
2022-08-22T09:14:21.319Z,25.20
2022-08-22T09:18:36.907Z,26.00
2022-08-22T09:22:51.030Z,26.70
2022-08-22T09:27:01.232Z,26.60
2022-08-22T09:31:46.484Z,26.90
2022-08-22T09:35:51.181Z,27.30
2022-08-22T09:40:03.751Z,27.40
2022-08-22T09:44:23.583Z,27.90
2022-08-22T09:48:48.650Z,28.70
2022-08-22T09:53:09.722Z,29.20
2022-08-22T09:57:40.360Z,29.10
2022-08-22T10:02:15.493Z,29.70
2022-08-22T10:06:27.617Z,28.80
2022-08-22T10:10:51.210Z,30.20
2022-08-22T10:15:06.981Z,30.50
2022-08-22T10:19:26.742Z,31.10
2022-08-22T10:23:54.425Z,31.70
2022-08-22T10:28:15.943Z,32.30
2022-08-22T10:32:30.754Z,29.90
2022-08-22T10:36:48.854Z,29.10
2022-08-22T10:41:45.417Z,28.40
2022-08-22T10:46:12.690Z,27.80
2022-08-22T10:50:38.149Z,27.60
2022-08-22T10:54:43.424Z,27.20
2022-08-22T10:59:06.756Z,27.00
2022-08-22T11:03:38.240Z,27.30
2022-08-22T11:08:08.111Z,27.20
2022-08-22T11:12:35.057Z,27.20
2022-08-22T11:16:54.941Z,27.20
2022-08-22T11:21:02.496Z,27.30
2022-08-22T11:25:38.622Z,27.30
2022-08-22T11:29:57.140Z,27.20
2022-08-22T11:34:10.703Z,27.10
2022-08-22T11:38:32.406Z,26.90
2022-08-22T11:42:47.636Z,27.10
2022-08-22T11:46:52.747Z,27.00
2022-08-22T11:51:17.958Z,27.20
2022-08-22T11:55:33.188Z,27.20
2022-08-22T11:59:43.005Z,27.10
2022-08-22T12:03:44.966Z,27.30
2022-08-22T12:08:24.640Z,27.60
2022-08-22T12:12:44.752Z,27.60
2022-08-22T12:16:57.823Z,27.70
2022-08-22T12:21:13.943Z,27.60
2022-08-22T12:25:54.049Z,27.90
2022-08-22T12:30:05.742Z,27.80
2022-08-22T12:34:38.747Z,27.90
2022-08-22T12:39:00.035Z,28.00
2022-08-22T12:43:43.443Z,28.30
2022-08-22T12:48:14.955Z,28.20
2022-08-22T12:52:51.145Z,28.20
2022-08-22T12:57:09.844Z,28.00
2022-08-22T13:01:33.845Z,27.90
2022-08-22T13:05:40.921Z,28.00
2022-08-22T13:09:48.606Z,28.20
2022-08-22T13:14:02.340Z,28.60
2022-08-22T13:18:29.428Z,28.80
2022-08-22T13:22:35.083Z,28.60
2022-08-22T13:26:41.793Z,28.40
2022-08-22T13:30:46.025Z,27.90
2022-08-22T13:34:53.939Z,27.70
2022-08-22T13:39:25.767Z,27.90
2022-08-22T13:43:37.737Z,28.20
2022-08-22T13:47:50.789Z,28.10
2022-08-22T13:52:29.013Z,28.20
2022-08-22T13:57:02.807Z,28.30
2022-08-22T14:01:04.580Z,28.50
2022-08-22T14:05:10.977Z,28.50
2022-08-22T14:09:29.524Z,28.60
2022-08-22T14:13:55.370Z,28.60
2022-08-22T14:18:10.379Z,28.90
2022-08-22T14:22:22.260Z,28.80
2022-08-22T14:27:08.749Z,29.00
2022-08-22T14:31:14.144Z,29.20
2022-08-22T14:35:23.173Z,28.80
2022-08-22T14:39:43.565Z,28.80
2022-08-22T14:44:03.777Z,29.20
2022-08-22T14:48:30.443Z,29.40
2022-08-22T14:52:48.370Z,29.20
2022-08-22T14:56:52.672Z,28.90
2022-08-22T15:00:56.354Z,28.60
2022-08-22T15:05:11.051Z,28.30
2022-08-22T15:10:03.196Z,28.40
2022-08-22T15:14:08.529Z,28.30
2022-08-22T15:18:41.475Z,28.50
2022-08-22T15:23:21.992Z,28.10
2022-08-22T15:27:25.786Z,27.60
2022-08-22T15:31:29.955Z,27.50
2022-08-22T15:35:32.200Z,27.40
2022-08-22T15:39:38.074Z,27.40
2022-08-22T15:43:50.564Z,27.40
2022-08-22T15:48:01.900Z,27.50
2022-08-22T15:52:04.004Z,27.40
2022-08-22T15:56:28.769Z,27.40
2022-08-22T16:00:43.578Z,27.30
2022-08-22T16:05:03.092Z,27.20
2022-08-22T16:09:05.074Z,27.10
2022-08-22T16:13:15.786Z,27.00
2022-08-22T16:17:29.771Z,26.80
2022-08-22T16:21:31.433Z,26.80
2022-08-22T16:25:45.500Z,26.80
2022-08-22T16:29:47.509Z,26.60
2022-08-22T16:33:56.948Z,26.40
2022-08-22T16:37:58.866Z,26.30
2022-08-22T16:42:15.871Z,26.30
2022-08-22T16:46:34.596Z,26.30
2022-08-22T16:50:40.949Z,26.20
2022-08-22T16:54:51.084Z,26.20
2022-08-22T16:59:24.116Z,26.10
2022-08-22T17:03:31.876Z,26.00
2022-08-22T17:07:44.820Z,25.90
2022-08-22T17:12:21.353Z,25.80
2022-08-22T17:16:25.898Z,25.80
2022-08-22T17:20:46.252Z,25.80
2022-08-22T17:25:03.582Z,25.90
2022-08-22T17:29:14.921Z,26.00
2022-08-22T17:33:26.654Z,25.90
2022-08-22T17:38:02.303Z,25.80
2022-08-22T17:42:42.192Z,25.70
2022-08-22T17:46:49.838Z,25.60
2022-08-22T17:50:54.868Z,25.40
2022-08-22T17:55:23.142Z,25.10
2022-08-22T17:59:33.844Z,24.80
2022-08-22T18:03:40.008Z,24.50
2022-08-22T18:07:44.452Z,24.20
2022-08-22T18:12:04.768Z,24.10
2022-08-22T18:16:55.385Z,23.80
2022-08-22T18:21:23.737Z,23.50
2022-08-22T18:25:43.738Z,23.40
2022-08-22T18:30:10.925Z,23.20
2022-08-22T18:34:40.978Z,22.90
2022-08-22T18:39:16.815Z,22.70
2022-08-22T18:43:25.820Z,22.40
2022-08-22T18:47:34.480Z,22.20
2022-08-22T18:51:38.667Z,22.00
2022-08-22T18:56:02.028Z,21.80
2022-08-22T19:00:06.022Z,21.60
2022-08-22T19:04:42.819Z,21.50
2022-08-22T19:08:53.836Z,21.40
2022-08-22T19:13:33.480Z,21.30
2022-08-22T19:17:55.400Z,21.20
2022-08-22T19:22:41.609Z,21.00
2022-08-22T19:27:18.359Z,20.90
2022-08-22T19:31:25.232Z,20.80
2022-08-22T19:36:04.936Z,20.70
2022-08-22T19:40:11.717Z,20.60
2022-08-22T19:44:38.395Z,20.60
2022-08-22T19:48:50.260Z,20.50
2022-08-22T19:53:24.988Z,20.40
2022-08-22T19:58:00.163Z,20.40
2022-08-22T20:02:42.166Z,20.30
2022-08-22T20:06:58.210Z,20.20
2022-08-22T20:11:21.678Z,20.20
2022-08-22T20:15:26.451Z,20.20
2022-08-22T20:24:28.684Z,20.00
2022-08-22T20:28:33.932Z,19.90
2022-08-22T20:32:46.577Z,19.90
2022-08-22T20:36:56.000Z,19.80
2022-08-22T20:41:29.848Z,19.80
2022-08-22T20:45:31.841Z,19.80
2022-08-22T20:49:45.370Z,19.70
2022-08-22T20:53:59.600Z,19.70
2022-08-22T20:58:05.609Z,19.60
2022-08-22T21:02:15.089Z,19.60
2022-08-22T21:06:21.435Z,19.50
2022-08-22T21:10:45.848Z,19.40
2022-08-22T21:14:47.734Z,19.40
2022-08-22T21:18:52.322Z,19.40
2022-08-22T21:22:55.351Z,19.30
2022-08-22T21:27:01.339Z,19.30
2022-08-22T21:31:20.591Z,19.20
2022-08-22T21:35:33.571Z,19.20
2022-08-22T21:39:41.665Z,19.10
2022-08-22T21:43:48.124Z,19.10
2022-08-22T21:47:53.927Z,19.10
2022-08-22T21:51:56.302Z,18.90
2022-08-22T21:56:13.702Z,18.80
2022-08-22T22:00:49.885Z,18.70
2022-08-22T22:04:51.811Z,18.60
2022-08-22T22:08:54.143Z,18.50
2022-08-22T22:12:58.760Z,18.40
2022-08-22T22:17:00.540Z,18.30
2022-08-22T22:21:02.676Z,18.20
2022-08-22T22:25:05.042Z,18.10
2022-08-22T22:29:27.223Z,18.00
2022-08-22T22:33:36.399Z,17.90
2022-08-22T22:37:38.412Z,17.80
2022-08-22T22:41:43.560Z,17.70
2022-08-22T22:45:45.288Z,17.60
2022-08-22T22:49:47.031Z,17.60
2022-08-22T22:53:49.088Z,17.50
2022-08-22T22:57:51.191Z,17.40
2022-08-22T23:02:11.044Z,17.40
2022-08-22T23:06:16.007Z,17.20
2022-08-22T23:10:21.923Z,17.20
2022-08-22T23:14:24.003Z,17.20
2022-08-22T23:18:30.197Z,17.20
2022-08-22T23:22:32.555Z,17.10
2022-08-22T23:26:34.325Z,17.10
2022-08-22T23:30:38.379Z,17.20
2022-08-22T23:34:45.940Z,17.20
2022-08-22T23:38:48.968Z,17.10
2022-08-22T23:42:50.664Z,17.20
2022-08-22T23:46:52.794Z,17.10
2022-08-22T23:50:54.978Z,17.20
2022-08-22T23:54:56.788Z,17.10
2022-08-22T23:59:00.169Z,17.10
